sensor_id;sensor_type;location;lat;lon;timestamp;noise_LAeq;noise_LA_min;noise_LA_max;noise_LA01;noise_LA95
69611;Laerm;56817;52.302;4.844;2023-02-01T00:00:03;37.69;34.36;42.73;;
69611;Laerm;56817;52.302;4.844;2023-02-01T00:00:13;38.01;35.01;43.45;;
69611;Laerm;56817;52.302;4.844;2023-02-01T00:00:24;40.33;34.21;46.03;;
69611;Laerm;56817;52.302;4.844;2023-02-01T00:00:34;34.39;32.37;36.19;;
69611;Laerm;56817;52.302;4.844;2023-02-01T00:00:45;34.04;32.42;35.85;;
69611;Laerm;56817;52.302;4.844;2023-02-01T00:00:55;36.00;33.47;38.10;;
69611;Laerm;56817;52.302;4.844;2023-02-01T00:01:08;38.02;35.50;43.61;;
69611;Laerm;56817;52.302;4.844;2023-02-01T00:01:19;42.74;38.64;48.20;;
69611;Laerm;56817;52.302;4.844;2023-02-01T00:01:29;43.44;38.67;47.89;;
69611;Laerm;56817;52.302;4.844;2023-02-01T00:01:39;40.95;36.67;45.78;;
69611;Laerm;56817;52.302;4.844;2023-02-01T00:01:50;39.99;37.28;44.05;;
69611;Laerm;56817;52.302;4.844;2023-02-01T00:02:00;41.35;38.65;44.71;;
69611;Laerm;56817;52.302;4.844;2023-02-01T00:02:11;42.62;39.05;47.47;;
69611;Laerm;56817;52.302;4.844;2023-02-01T00:02:21;42.59;39.96;47.56;;
69611;Laerm;56817;52.302;4.844;2023-02-01T00:02:32;46.34;41.09;50.30;;
69611;Laerm;56817;52.302;4.844;2023-02-01T00:02:42;43.23;40.97;45.78;;
69611;Laerm;56817;52.302;4.844;2023-02-01T00:02:52;41.03;37.10;44.26;;
69611;Laerm;56817;52.302;4.844;2023-02-01T00:03:02;40.71;36.81;46.79;;
69611;Laerm;56817;52.302;4.844;2023-02-01T00:03:13;40.84;36.35;51.56;;
69611;Laerm;56817;52.302;4.844;2023-02-01T00:03:24;39.20;36.22;45.25;;
69611;Laerm;56817;52.302;4.844;2023-02-01T00:03:34;42.53;36.38;50.93;;
69611;Laerm;56817;52.302;4.844;2023-02-01T00:03:45;41.06;37.63;47.16;;
69611;Laerm;56817;52.302;4.844;2023-02-01T00:03:55;41.61;37.69;45.52;;
69611;Laerm;56817;52.302;4.844;2023-02-01T00:04:05;45.80;37.52;52.40;;
69611;Laerm;56817;52.302;4.844;2023-02-01T00:04:16;45.39;38.79;50.87;;
69611;Laerm;56817;52.302;4.844;2023-02-01T00:04:26;38.25;36.45;40.91;;
69611;Laerm;56817;52.302;4.844;2023-02-01T00:04:36;39.31;36.78;45.56;;
69611;Laerm;56817;52.302;4.844;2023-02-01T00:04:47;44.31;37.15;51.38;;
69611;Laerm;56817;52.302;4.844;2023-02-01T00:04:57;42.44;37.92;53.07;;
69611;Laerm;56817;52.302;4.844;2023-02-01T00:05:08;39.32;37.24;43.17;;
69611;Laerm;56817;52.302;4.844;2023-02-01T00:05:18;41.43;36.09;47.40;;
69611;Laerm;56817;52.302;4.844;2023-02-01T00:05:29;36.35;34.19;38.08;;
69611;Laerm;56817;52.302;4.844;2023-02-01T00:05:39;35.93;33.80;40.73;;
69611;Laerm;56817;52.302;4.844;2023-02-01T00:05:58;36.83;34.84;39.57;;
69611;Laerm;56817;52.302;4.844;2023-02-01T00:06:09;40.59;36.00;44.26;;
69611;Laerm;56817;52.302;4.844;2023-02-01T00:06:20;44.86;40.80;49.95;;
69611;Laerm;56817;52.302;4.844;2023-02-01T00:06:30;42.52;38.84;46.28;;
69611;Laerm;56817;52.302;4.844;2023-02-01T00:06:40;42.35;35.95;49.27;;
69611;Laerm;56817;52.302;4.844;2023-02-01T00:06:50;39.61;36.86;46.09;;
69611;Laerm;56817;52.302;4.844;2023-02-01T00:07:01;38.33;35.64;40.86;;
69611;Laerm;56817;52.302;4.844;2023-02-01T00:07:11;37.49;35.98;39.10;;
69611;Laerm;56817;52.302;4.844;2023-02-01T00:07:21;39.72;35.89;44.15;;
69611;Laerm;56817;52.302;4.844;2023-02-01T00:07:31;41.24;38.93;44.52;;
69611;Laerm;56817;52.302;4.844;2023-02-01T00:07:42;41.30;37.37;45.67;;
69611;Laerm;56817;52.302;4.844;2023-02-01T00:07:52;41.08;38.47;45.38;;
69611;Laerm;56817;52.302;4.844;2023-02-01T00:08:02;42.81;38.98;47.26;;
69611;Laerm;56817;52.302;4.844;2023-02-01T00:08:13;44.31;40.98;47.61;;
69611;Laerm;56817;52.302;4.844;2023-02-01T00:08:23;43.98;40.90;51.19;;
69611;Laerm;56817;52.302;4.844;2023-02-01T00:08:33;42.97;38.24;52.51;;
69611;Laerm;56817;52.302;4.844;2023-02-01T00:08:45;40.03;36.62;44.26;;
69611;Laerm;56817;52.302;4.844;2023-02-01T00:08:55;37.58;35.03;43.41;;
69611;Laerm;56817;52.302;4.844;2023-02-01T00:09:05;37.44;35.67;41.20;;
69611;Laerm;56817;52.302;4.844;2023-02-01T00:09:16;37.97;35.82;40.13;;
69611;Laerm;56817;52.302;4.844;2023-02-01T00:09:26;39.61;35.16;44.13;;
69611;Laerm;56817;52.302;4.844;2023-02-01T00:09:36;37.92;35.25;42.33;;
69611;Laerm;56817;52.302;4.844;2023-02-01T00:09:46;39.84;35.67;44.28;;
69611;Laerm;56817;52.302;4.844;2023-02-01T00:09:57;41.00;36.71;46.55;;
69611;Laerm;56817;52.302;4.844;2023-02-01T00:10:07;37.70;35.37;41.22;;
69611;Laerm;56817;52.302;4.844;2023-02-01T00:10:18;41.22;37.52;47.14;;
69611;Laerm;56817;52.302;4.844;2023-02-01T00:10:28;40.75;38.00;44.19;;
69611;Laerm;56817;52.302;4.844;2023-02-01T00:10:38;40.31;36.52;47.88;;
69611;Laerm;56817;52.302;4.844;2023-02-01T00:10:49;40.63;37.64;43.85;;
69611;Laerm;56817;52.302;4.844;2023-02-01T00:11:08;43.89;39.42;48.76;;
69611;Laerm;56817;52.302;4.844;2023-02-01T00:11:18;46.05;39.89;52.91;;
69611;Laerm;56817;52.302;4.844;2023-02-01T00:11:29;40.29;36.97;46.64;;
69611;Laerm;56817;52.302;4.844;2023-02-01T00:11:39;43.59;39.09;53.66;;
69611;Laerm;56817;52.302;4.844;2023-02-01T00:11:50;44.34;41.58;57.59;;
69611;Laerm;56817;52.302;4.844;2023-02-01T00:12:00;43.97;37.85;53.90;;
69611;Laerm;56817;52.302;4.844;2023-02-01T00:12:12;39.74;36.01;49.11;;
69611;Laerm;56817;52.302;4.844;2023-02-01T00:12:22;39.41;36.89;42.41;;
69611;Laerm;56817;52.302;4.844;2023-02-01T00:12:33;41.90;38.85;44.93;;
69611;Laerm;56817;52.302;4.844;2023-02-01T00:12:43;41.83;38.83;44.54;;
69611;Laerm;56817;52.302;4.844;2023-02-01T00:12:53;41.84;37.80;51.08;;
69611;Laerm;56817;52.302;4.844;2023-02-01T00:13:04;42.22;36.62;47.01;;
69611;Laerm;56817;52.302;4.844;2023-02-01T00:13:14;42.86;37.23;47.54;;
69611;Laerm;56817;52.302;4.844;2023-02-01T00:13:24;41.30;36.95;47.14;;
69611;Laerm;56817;52.302;4.844;2023-02-01T00:13:35;38.15;36.08;40.89;;
69611;Laerm;56817;52.302;4.844;2023-02-01T00:13:48;39.08;36.63;41.65;;
69611;Laerm;56817;52.302;4.844;2023-02-01T00:13:58;38.56;35.00;42.60;;
69611;Laerm;56817;52.302;4.844;2023-02-01T00:14:08;38.01;35.10;41.01;;
69611;Laerm;56817;52.302;4.844;2023-02-01T00:14:19;37.52;35.33;39.71;;
69611;Laerm;56817;52.302;4.844;2023-02-01T00:14:29;38.45;35.62;42.59;;
69611;Laerm;56817;52.302;4.844;2023-02-01T00:14:40;39.12;36.75;41.82;;
69611;Laerm;56817;52.302;4.844;2023-02-01T00:14:50;38.16;34.94;41.46;;
69611;Laerm;56817;52.302;4.844;2023-02-01T00:15:00;40.30;37.64;43.76;;
69611;Laerm;56817;52.302;4.844;2023-02-01T00:15:10;37.91;35.32;40.04;;
69611;Laerm;56817;52.302;4.844;2023-02-01T00:15:21;38.23;35.67;45.64;;
69611;Laerm;56817;52.302;4.844;2023-02-01T00:15:33;40.35;36.31;51.41;;
69611;Laerm;56817;52.302;4.844;2023-02-01T00:15:43;40.11;35.69;45.69;;
69611;Laerm;56817;52.302;4.844;2023-02-01T00:15:54;41.95;35.35;50.22;;
69611;Laerm;56817;52.302;4.844;2023-02-01T00:16:05;46.26;41.48;52.37;;
69611;Laerm;56817;52.302;4.844;2023-02-01T00:16:17;41.60;37.23;44.53;;
69611;Laerm;56817;52.302;4.844;2023-02-01T00:16:28;39.40;36.99;41.25;;
69611;Laerm;56817;52.302;4.844;2023-02-01T00:16:39;38.03;35.01;40.90;;
69611;Laerm;56817;52.302;4.844;2023-02-01T00:16:49;40.23;36.35;44.46;;
69611;Laerm;56817;52.302;4.844;2023-02-01T00:16:59;36.63;34.39;39.53;;
69611;Laerm;56817;52.302;4.844;2023-02-01T00:17:09;36.56;34.70;39.55;;
69611;Laerm;56817;52.302;4.844;2023-02-01T00:17:20;40.79;36.32;44.52;;
69611;Laerm;56817;52.302;4.844;2023-02-01T00:17:30;41.07;35.04;46.01;;
69611;Laerm;56817;52.302;4.844;2023-02-01T00:17:40;37.37;35.55;40.01;;
69611;Laerm;56817;52.302;4.844;2023-02-01T00:17:53;39.88;36.55;47.24;;
69611;Laerm;56817;52.302;4.844;2023-02-01T00:18:04;38.13;36.05;40.15;;
69611;Laerm;56817;52.302;4.844;2023-02-01T00:18:14;39.55;37.20;43.52;;
69611;Laerm;56817;52.302;4.844;2023-02-01T00:18:25;43.85;39.99;50.70;;
69611;Laerm;56817;52.302;4.844;2023-02-01T00:18:35;43.53;40.69;46.84;;
69611;Laerm;56817;52.302;4.844;2023-02-01T00:18:46;43.44;40.79;48.12;;
69611;Laerm;56817;52.302;4.844;2023-02-01T00:18:57;47.49;43.72;51.83;;
69611;Laerm;56817;52.302;4.844;2023-02-01T00:19:12;46.36;40.06;55.12;;
69611;Laerm;56817;52.302;4.844;2023-02-01T00:19:22;44.05;39.56;49.74;;
69611;Laerm;56817;52.302;4.844;2023-02-01T00:19:33;42.66;37.02;46.89;;
69611;Laerm;56817;52.302;4.844;2023-02-01T00:19:44;38.47;36.28;41.04;;
69611;Laerm;56817;52.302;4.844;2023-02-01T00:19:54;41.32;37.76;45.55;;
69611;Laerm;56817;52.302;4.844;2023-02-01T00:20:04;38.33;35.40;42.02;;
69611;Laerm;56817;52.302;4.844;2023-02-01T00:20:15;41.86;36.53;46.59;;
69611;Laerm;56817;52.302;4.844;2023-02-01T00:20:25;37.68;34.40;41.88;;
69611;Laerm;56817;52.302;4.844;2023-02-01T00:20:35;37.70;34.78;41.82;;
69611;Laerm;56817;52.302;4.844;2023-02-01T00:20:46;40.84;37.86;45.28;;
69611;Laerm;56817;52.302;4.844;2023-02-01T00:20:57;41.83;36.76;49.38;;
69611;Laerm;56817;52.302;4.844;2023-02-01T00:21:07;36.44;34.81;38.73;;
69611;Laerm;56817;52.302;4.844;2023-02-01T00:21:18;36.84;34.98;40.24;;
69611;Laerm;56817;52.302;4.844;2023-02-01T00:21:29;39.96;36.28;48.14;;
69611;Laerm;56817;52.302;4.844;2023-02-01T00:21:40;37.63;34.00;43.50;;
69611;Laerm;56817;52.302;4.844;2023-02-01T00:21:50;37.45;34.65;45.06;;
69611;Laerm;56817;52.302;4.844;2023-02-01T00:22:00;39.93;35.22;54.62;;
69611;Laerm;56817;52.302;4.844;2023-02-01T00:22:11;39.08;35.48;43.78;;
69611;Laerm;56817;52.302;4.844;2023-02-01T00:22:21;38.36;35.58;43.00;;
69611;Laerm;56817;52.302;4.844;2023-02-01T00:22:31;39.83;36.43;42.52;;
69611;Laerm;56817;52.302;4.844;2023-02-01T00:22:41;39.93;36.85;47.04;;
69611;Laerm;56817;52.302;4.844;2023-02-01T00:22:52;38.95;35.89;44.08;;
69611;Laerm;56817;52.302;4.844;2023-02-01T00:23:02;37.23;34.37;41.34;;
69611;Laerm;56817;52.302;4.844;2023-02-01T00:23:12;36.08;34.18;37.77;;
69611;Laerm;56817;52.302;4.844;2023-02-01T00:23:22;38.08;34.92;42.26;;
69611;Laerm;56817;52.302;4.844;2023-02-01T00:23:33;41.49;37.60;44.22;;
69611;Laerm;56817;52.302;4.844;2023-02-01T00:23:44;40.14;35.95;46.80;;
69611;Laerm;56817;52.302;4.844;2023-02-01T00:23:54;42.78;35.16;56.49;;
69611;Laerm;56817;52.302;4.844;2023-02-01T00:24:05;40.38;34.70;51.54;;
69611;Laerm;56817;52.302;4.844;2023-02-01T00:24:15;41.03;37.20;47.57;;
69611;Laerm;56817;52.302;4.844;2023-02-01T00:24:25;39.21;36.30;43.30;;
69611;Laerm;56817;52.302;4.844;2023-02-01T00:24:36;39.88;36.63;42.91;;
69611;Laerm;56817;52.302;4.844;2023-02-01T00:24:46;38.43;36.36;40.01;;
69611;Laerm;56817;52.302;4.844;2023-02-01T00:24:56;39.82;36.89;48.68;;
69611;Laerm;56817;52.302;4.844;2023-02-01T00:25:07;41.00;38.16;49.32;;
69611;Laerm;56817;52.302;4.844;2023-02-01T00:25:17;39.84;36.43;43.54;;
69611;Laerm;56817;52.302;4.844;2023-02-01T00:25:27;38.30;35.32;46.40;;
69611;Laerm;56817;52.302;4.844;2023-02-01T00:25:37;39.85;36.73;43.20;;
69611;Laerm;56817;52.302;4.844;2023-02-01T00:25:48;41.08;38.14;47.44;;
69611;Laerm;56817;52.302;4.844;2023-02-01T00:25:59;40.85;38.58;43.22;;
69611;Laerm;56817;52.302;4.844;2023-02-01T00:26:14;40.98;38.40;44.10;;
69611;Laerm;56817;52.302;4.844;2023-02-01T00:26:27;40.92;37.73;46.68;;
69611;Laerm;56817;52.302;4.844;2023-02-01T00:26:41;39.65;37.56;42.70;;
69611;Laerm;56817;52.302;4.844;2023-02-01T00:26:51;38.96;36.71;42.18;;
69611;Laerm;56817;52.302;4.844;2023-02-01T00:27:01;41.16;38.34;43.70;;
69611;Laerm;56817;52.302;4.844;2023-02-01T00:27:12;39.75;36.68;41.95;;
69611;Laerm;56817;52.302;4.844;2023-02-01T00:27:27;40.97;38.33;47.81;;
69611;Laerm;56817;52.302;4.844;2023-02-01T00:27:37;42.31;39.94;44.87;;
69611;Laerm;56817;52.302;4.844;2023-02-01T00:27:48;42.76;40.06;45.64;;
69611;Laerm;56817;52.302;4.844;2023-02-01T00:27:58;43.63;40.19;46.91;;
69611;Laerm;56817;52.302;4.844;2023-02-01T00:28:09;42.67;38.58;48.35;;
69611;Laerm;56817;52.302;4.844;2023-02-01T00:28:19;41.41;37.80;48.02;;
69611;Laerm;56817;52.302;4.844;2023-02-01T00:28:29;39.98;36.60;44.06;;
69611;Laerm;56817;52.302;4.844;2023-02-01T00:28:40;40.92;37.06;46.67;;
69611;Laerm;56817;52.302;4.844;2023-02-01T00:28:50;40.46;37.94;44.06;;
69611;Laerm;56817;52.302;4.844;2023-02-01T00:29:01;38.17;36.00;41.33;;
69611;Laerm;56817;52.302;4.844;2023-02-01T00:29:15;38.29;35.51;45.22;;
69611;Laerm;56817;52.302;4.844;2023-02-01T00:29:26;40.03;36.85;48.85;;
69611;Laerm;56817;52.302;4.844;2023-02-01T00:29:36;40.47;37.00;48.93;;
69611;Laerm;56817;52.302;4.844;2023-02-01T00:29:46;39.80;37.07;43.20;;
69611;Laerm;56817;52.302;4.844;2023-02-01T00:29:57;43.12;37.31;55.16;;
69611;Laerm;56817;52.302;4.844;2023-02-01T00:30:07;42.18;39.32;45.81;;
69611;Laerm;56817;52.302;4.844;2023-02-01T00:30:18;44.71;41.38;53.32;;
69611;Laerm;56817;52.302;4.844;2023-02-01T00:30:28;44.26;38.37;57.86;;
69611;Laerm;56817;52.302;4.844;2023-02-01T00:30:38;40.94;37.42;44.84;;
69611;Laerm;56817;52.302;4.844;2023-02-01T00:30:55;39.85;37.03;44.28;;
69611;Laerm;56817;52.302;4.844;2023-02-01T00:31:05;42.80;39.87;47.47;;
69611;Laerm;56817;52.302;4.844;2023-02-01T00:31:15;40.98;38.27;44.84;;
69611;Laerm;56817;52.302;4.844;2023-02-01T00:31:26;40.21;36.46;46.89;;
69611;Laerm;56817;52.302;4.844;2023-02-01T00:31:36;41.50;37.50;45.36;;
69611;Laerm;56817;52.302;4.844;2023-02-01T00:31:48;42.36;38.43;46.17;;
69611;Laerm;56817;52.302;4.844;2023-02-01T00:31:59;41.20;37.93;46.07;;
69611;Laerm;56817;52.302;4.844;2023-02-01T00:32:09;40.10;38.08;42.83;;
69611;Laerm;56817;52.302;4.844;2023-02-01T00:32:19;39.81;36.54;43.81;;
69611;Laerm;56817;52.302;4.844;2023-02-01T00:32:30;39.79;37.49;44.40;;
69611;Laerm;56817;52.302;4.844;2023-02-01T00:32:41;40.34;37.51;43.88;;
69611;Laerm;56817;52.302;4.844;2023-02-01T00:32:52;43.49;39.77;48.69;;
69611;Laerm;56817;52.302;4.844;2023-02-01T00:33:02;42.80;40.21;47.13;;
69611;Laerm;56817;52.302;4.844;2023-02-01T00:33:12;44.19;40.10;55.19;;
69611;Laerm;56817;52.302;4.844;2023-02-01T00:33:22;43.08;39.71;47.10;;
69611;Laerm;56817;52.302;4.844;2023-02-01T00:33:33;48.02;40.29;60.87;;
69611;Laerm;56817;52.302;4.844;2023-02-01T00:33:43;41.51;37.53;48.51;;
69611;Laerm;56817;52.302;4.844;2023-02-01T00:33:56;39.07;35.63;42.24;;
69611;Laerm;56817;52.302;4.844;2023-02-01T00:34:06;40.24;36.19;47.07;;
69611;Laerm;56817;52.302;4.844;2023-02-01T00:34:17;37.26;34.21;39.42;;
69611;Laerm;56817;52.302;4.844;2023-02-01T00:34:27;37.08;34.82;39.61;;
69611;Laerm;56817;52.302;4.844;2023-02-01T00:34:37;39.09;35.82;42.95;;
69611;Laerm;56817;52.302;4.844;2023-02-01T00:34:48;40.24;36.84;46.17;;
69611;Laerm;56817;52.302;4.844;2023-02-01T00:34:58;39.92;36.60;48.10;;
69611;Laerm;56817;52.302;4.844;2023-02-01T00:35:08;39.26;36.66;47.38;;
69611;Laerm;56817;52.302;4.844;2023-02-01T00:35:18;40.93;37.87;44.85;;
69611;Laerm;56817;52.302;4.844;2023-02-01T00:35:29;42.17;37.22;48.37;;
69611;Laerm;56817;52.302;4.844;2023-02-01T00:35:39;37.69;35.66;39.53;;
69611;Laerm;56817;52.302;4.844;2023-02-01T00:35:49;37.79;35.56;39.88;;
69611;Laerm;56817;52.302;4.844;2023-02-01T00:36:00;44.22;36.70;52.90;;
69611;Laerm;56817;52.302;4.844;2023-02-01T00:36:11;43.09;36.20;60.23;;
69611;Laerm;56817;52.302;4.844;2023-02-01T00:36:21;38.61;34.84;50.10;;
69611;Laerm;56817;52.302;4.844;2023-02-01T00:36:32;36.82;34.70;39.86;;
69611;Laerm;56817;52.302;4.844;2023-02-01T00:36:43;38.19;34.41;44.30;;
69611;Laerm;56817;52.302;4.844;2023-02-01T00:36:53;41.71;36.56;46.05;;
69611;Laerm;56817;52.302;4.844;2023-02-01T00:37:03;41.19;38.01;44.47;;
69611;Laerm;56817;52.302;4.844;2023-02-01T00:37:14;40.77;36.97;46.62;;
69611;Laerm;56817;52.302;4.844;2023-02-01T00:37:24;39.58;37.40;42.60;;
69611;Laerm;56817;52.302;4.844;2023-02-01T00:37:34;40.83;38.79;43.33;;
69611;Laerm;56817;52.302;4.844;2023-02-01T00:37:44;42.46;37.65;50.65;;
69611;Laerm;56817;52.302;4.844;2023-02-01T00:37:55;42.35;36.02;54.92;;
69611;Laerm;56817;52.302;4.844;2023-02-01T00:38:05;38.33;35.83;40.75;;
69611;Laerm;56817;52.302;4.844;2023-02-01T00:38:15;42.02;39.22;44.92;;
69611;Laerm;56817;52.302;4.844;2023-02-01T00:38:26;40.36;37.68;43.82;;
69611;Laerm;56817;52.302;4.844;2023-02-01T00:38:37;39.13;36.28;42.40;;
69611;Laerm;56817;52.302;4.844;2023-02-01T00:38:47;41.48;36.24;48.63;;
69611;Laerm;56817;52.302;4.844;2023-02-01T00:38:58;40.43;36.36;44.28;;
69611;Laerm;56817;52.302;4.844;2023-02-01T00:39:09;38.09;35.65;41.83;;
69611;Laerm;56817;52.302;4.844;2023-02-01T00:39:19;41.85;36.04;47.42;;
69611;Laerm;56817;52.302;4.844;2023-02-01T00:39:30;45.81;39.99;51.39;;
69611;Laerm;56817;52.302;4.844;2023-02-01T00:39:40;41.11;36.47;46.30;;
69611;Laerm;56817;52.302;4.844;2023-02-01T00:39:50;36.88;35.07;38.89;;
69611;Laerm;56817;52.302;4.844;2023-02-01T00:40:00;36.07;33.57;40.90;;
69611;Laerm;56817;52.302;4.844;2023-02-01T00:40:11;36.85;34.03;42.42;;
69611;Laerm;56817;52.302;4.844;2023-02-01T00:40:21;38.36;34.11;46.23;;
69611;Laerm;56817;52.302;4.844;2023-02-01T00:40:31;40.05;34.51;45.85;;
69611;Laerm;56817;52.302;4.844;2023-02-01T00:40:42;36.24;33.54;38.87;;
69611;Laerm;56817;52.302;4.844;2023-02-01T00:40:52;34.90;33.09;36.74;;
69611;Laerm;56817;52.302;4.844;2023-02-01T00:41:03;35.74;33.79;38.93;;
69611;Laerm;56817;52.302;4.844;2023-02-01T00:41:15;38.28;34.34;45.91;;
69611;Laerm;56817;52.302;4.844;2023-02-01T00:41:25;36.83;34.92;42.34;;
69611;Laerm;56817;52.302;4.844;2023-02-01T00:41:35;38.16;35.78;39.75;;
69611;Laerm;56817;52.302;4.844;2023-02-01T00:41:46;43.09;37.74;49.05;;
69611;Laerm;56817;52.302;4.844;2023-02-01T00:41:56;38.83;34.93;45.87;;
69611;Laerm;56817;52.302;4.844;2023-02-01T00:42:06;37.56;34.74;39.94;;
69611;Laerm;56817;52.302;4.844;2023-02-01T00:42:17;39.10;35.69;47.25;;
69611;Laerm;56817;52.302;4.844;2023-02-01T00:42:27;39.91;36.34;45.38;;
69611;Laerm;56817;52.302;4.844;2023-02-01T00:42:37;39.68;35.42;44.21;;
69611;Laerm;56817;52.302;4.844;2023-02-01T00:42:48;38.40;35.50;41.81;;
69611;Laerm;56817;52.302;4.844;2023-02-01T00:42:58;38.33;35.98;41.66;;
69611;Laerm;56817;52.302;4.844;2023-02-01T00:43:08;42.05;37.44;47.95;;
69611;Laerm;56817;52.302;4.844;2023-02-01T00:43:18;43.44;38.59;47.88;;
69611;Laerm;56817;52.302;4.844;2023-02-01T00:43:30;39.08;36.62;42.08;;
69611;Laerm;56817;52.302;4.844;2023-02-01T00:43:40;39.83;36.49;49.21;;
69611;Laerm;56817;52.302;4.844;2023-02-01T00:43:51;44.57;38.42;52.47;;
69611;Laerm;56817;52.302;4.844;2023-02-01T00:44:01;41.63;37.53;45.28;;
69611;Laerm;56817;52.302;4.844;2023-02-01T00:44:12;38.79;36.85;41.23;;
69611;Laerm;56817;52.302;4.844;2023-02-01T00:44:22;43.69;37.79;48.69;;
69611;Laerm;56817;52.302;4.844;2023-02-01T00:44:32;43.81;40.31;47.24;;
69611;Laerm;56817;52.302;4.844;2023-02-01T00:44:45;43.47;39.32;50.82;;
69611;Laerm;56817;52.302;4.844;2023-02-01T00:44:55;42.75;38.80;47.48;;
69611;Laerm;56817;52.302;4.844;2023-02-01T00:45:05;39.59;36.21;44.69;;
69611;Laerm;56817;52.302;4.844;2023-02-01T00:45:16;38.32;35.85;40.74;;
69611;Laerm;56817;52.302;4.844;2023-02-01T00:45:26;36.65;34.24;38.86;;
69611;Laerm;56817;52.302;4.844;2023-02-01T00:45:36;35.02;33.33;36.79;;
69611;Laerm;56817;52.302;4.844;2023-02-01T00:45:47;34.66;32.65;38.33;;
69611;Laerm;56817;52.302;4.844;2023-02-01T00:45:57;35.27;33.46;37.15;;
69611;Laerm;56817;52.302;4.844;2023-02-01T00:46:08;35.36;33.54;38.29;;
69611;Laerm;56817;52.302;4.844;2023-02-01T00:46:18;36.28;33.79;39.30;;
69611;Laerm;56817;52.302;4.844;2023-02-01T00:46:29;39.22;36.71;46.41;;
69611;Laerm;56817;52.302;4.844;2023-02-01T00:46:39;40.67;36.33;47.25;;
69611;Laerm;56817;52.302;4.844;2023-02-01T00:46:49;43.45;39.80;53.07;;
69611;Laerm;56817;52.302;4.844;2023-02-01T00:47:00;43.08;39.25;50.32;;
69611;Laerm;56817;52.302;4.844;2023-02-01T00:47:10;40.83;37.60;44.37;;
69611;Laerm;56817;52.302;4.844;2023-02-01T00:47:20;40.22;37.17;43.14;;
69611;Laerm;56817;52.302;4.844;2023-02-01T00:47:30;38.30;34.95;45.76;;
69611;Laerm;56817;52.302;4.844;2023-02-01T00:47:41;39.38;35.88;47.50;;
69611;Laerm;56817;52.302;4.844;2023-02-01T00:47:51;39.60;36.60;45.98;;
69611;Laerm;56817;52.302;4.844;2023-02-01T00:48:02;42.26;38.50;46.66;;
69611;Laerm;56817;52.302;4.844;2023-02-01T00:48:12;38.89;36.53;41.81;;
69611;Laerm;56817;52.302;4.844;2023-02-01T00:48:22;41.17;37.33;50.07;;
69611;Laerm;56817;52.302;4.844;2023-02-01T00:48:33;40.60;37.52;46.14;;
69611;Laerm;56817;52.302;4.844;2023-02-01T00:48:43;41.80;34.93;50.17;;
69611;Laerm;56817;52.302;4.844;2023-02-01T00:48:54;38.26;34.34;43.09;;
69611;Laerm;56817;52.302;4.844;2023-02-01T00:49:04;38.28;34.03;47.08;;
69611;Laerm;56817;52.302;4.844;2023-02-01T00:49:17;36.76;34.02;39.18;;
69611;Laerm;56817;52.302;4.844;2023-02-01T00:49:27;40.35;37.14;45.90;;
69611;Laerm;56817;52.302;4.844;2023-02-01T00:49:38;41.34;36.26;48.34;;
69611;Laerm;56817;52.302;4.844;2023-02-01T00:49:48;41.18;36.62;48.15;;
69611;Laerm;56817;52.302;4.844;2023-02-01T00:49:59;40.00;37.81;43.46;;
69611;Laerm;56817;52.302;4.844;2023-02-01T00:50:09;41.48;38.61;49.61;;
69611;Laerm;56817;52.302;4.844;2023-02-01T00:50:19;39.19;36.84;42.34;;
69611;Laerm;56817;52.302;4.844;2023-02-01T00:50:30;38.61;35.19;53.92;;
69611;Laerm;56817;52.302;4.844;2023-02-01T00:50:43;36.70;34.87;38.27;;
69611;Laerm;56817;52.302;4.844;2023-02-01T00:50:53;36.63;34.33;39.67;;
69611;Laerm;56817;52.302;4.844;2023-02-01T00:51:05;40.92;35.30;45.17;;
69611;Laerm;56817;52.302;4.844;2023-02-01T00:51:17;40.43;37.43;44.88;;
69611;Laerm;56817;52.302;4.844;2023-02-01T00:51:28;38.23;32.81;52.52;;
69611;Laerm;56817;52.302;4.844;2023-02-01T00:51:38;35.19;33.76;37.21;;
69611;Laerm;56817;52.302;4.844;2023-02-01T00:51:48;38.50;33.26;48.71;;
69611;Laerm;56817;52.302;4.844;2023-02-01T00:51:59;41.60;37.02;48.63;;
69611;Laerm;56817;52.302;4.844;2023-02-01T00:52:09;40.40;35.35;48.55;;
69611;Laerm;56817;52.302;4.844;2023-02-01T00:52:19;38.76;36.92;41.19;;
69611;Laerm;56817;52.302;4.844;2023-02-01T00:52:29;40.55;36.35;45.84;;
69611;Laerm;56817;52.302;4.844;2023-02-01T00:52:40;38.16;34.58;47.77;;
69611;Laerm;56817;52.302;4.844;2023-02-01T00:52:50;38.41;34.62;45.91;;
69611;Laerm;56817;52.302;4.844;2023-02-01T00:53:00;39.57;35.93;43.69;;
69611;Laerm;56817;52.302;4.844;2023-02-01T00:53:11;42.32;38.86;45.43;;
69611;Laerm;56817;52.302;4.844;2023-02-01T00:53:21;39.78;36.59;46.76;;
69611;Laerm;56817;52.302;4.844;2023-02-01T00:53:32;38.19;35.27;39.87;;
69611;Laerm;56817;52.302;4.844;2023-02-01T00:53:42;39.51;35.96;50.83;;
69611;Laerm;56817;52.302;4.844;2023-02-01T00:53:52;44.07;37.85;52.28;;
69611;Laerm;56817;52.302;4.844;2023-02-01T00:54:03;43.26;37.60;50.60;;
69611;Laerm;56817;52.302;4.844;2023-02-01T00:54:13;42.18;37.02;47.71;;
69611;Laerm;56817;52.302;4.844;2023-02-01T00:54:23;39.11;36.51;43.19;;
69611;Laerm;56817;52.302;4.844;2023-02-01T00:54:34;42.11;38.42;47.24;;
69611;Laerm;56817;52.302;4.844;2023-02-01T00:54:45;38.85;36.51;42.41;;
69611;Laerm;56817;52.302;4.844;2023-02-01T00:54:56;42.20;37.18;51.64;;
69611;Laerm;56817;52.302;4.844;2023-02-01T00:55:06;45.72;38.09;59.84;;
69611;Laerm;56817;52.302;4.844;2023-02-01T00:55:16;38.83;37.06;41.86;;
69611;Laerm;56817;52.302;4.844;2023-02-01T00:55:26;41.17;37.28;50.40;;
69611;Laerm;56817;52.302;4.844;2023-02-01T00:55:37;41.83;39.84;44.96;;
69611;Laerm;56817;52.302;4.844;2023-02-01T00:55:47;40.31;36.73;47.07;;
69611;Laerm;56817;52.302;4.844;2023-02-01T00:55:58;37.70;35.23;41.91;;
69611;Laerm;56817;52.302;4.844;2023-02-01T00:56:08;36.39;34.45;40.72;;
69611;Laerm;56817;52.302;4.844;2023-02-01T00:56:19;37.19;34.93;41.62;;
69611;Laerm;56817;52.302;4.844;2023-02-01T00:56:29;41.19;37.19;44.93;;
69611;Laerm;56817;52.302;4.844;2023-02-01T00:56:40;40.86;38.37;46.65;;
69611;Laerm;56817;52.302;4.844;2023-02-01T00:56:50;43.99;39.21;48.96;;
69611;Laerm;56817;52.302;4.844;2023-02-01T00:57:00;40.38;36.79;45.67;;
69611;Laerm;56817;52.302;4.844;2023-02-01T00:57:11;41.36;36.41;46.38;;
69611;Laerm;56817;52.302;4.844;2023-02-01T00:57:21;36.06;33.09;38.17;;
69611;Laerm;56817;52.302;4.844;2023-02-01T00:57:31;38.09;34.60;46.42;;
69611;Laerm;56817;52.302;4.844;2023-02-01T00:57:41;42.82;35.93;49.57;;
69611;Laerm;56817;52.302;4.844;2023-02-01T00:57:52;41.76;38.30;48.67;;
69611;Laerm;56817;52.302;4.844;2023-02-01T00:58:02;41.02;38.33;44.31;;
69611;Laerm;56817;52.302;4.844;2023-02-01T00:58:13;41.28;37.21;46.58;;
69611;Laerm;56817;52.302;4.844;2023-02-01T00:58:24;42.08;37.63;46.34;;
69611;Laerm;56817;52.302;4.844;2023-02-01T00:58:35;38.09;34.34;44.04;;
69611;Laerm;56817;52.302;4.844;2023-02-01T00:58:46;37.97;33.93;45.61;;
69611;Laerm;56817;52.302;4.844;2023-02-01T00:58:56;37.36;33.04;44.02;;
69611;Laerm;56817;52.302;4.844;2023-02-01T00:59:07;34.28;32.71;36.53;;
69611;Laerm;56817;52.302;4.844;2023-02-01T00:59:18;38.18;33.39;42.38;;
69611;Laerm;56817;52.302;4.844;2023-02-01T00:59:28;34.74;32.95;36.68;;